Time;durP1;ratioP1;P1;durP2;ratioP2;P2;SDS_P1;SDS_P2;PMS_P1;PMS_P2;Temp;Humidity;BMP_temperature;BMP_pressure;BME280_temperature;BME280_humidity;BME280_pressure;Samples;Min_cycle;Max_cycle;Signal;HPM_P1;HPM_P2
2022/04/27 00:01:36;;;;;;;9.68;6.75;;;6.80;99.90;;;;;;6216371;23;20353;-85
2022/04/27 00:04:02;;;;;;;11.60;7.53;;;6.80;99.90;;;;;;6215304;23;20011;-86
2022/04/27 00:06:28;;;;;;;10.52;7.47;;;6.90;99.90;;;;;;6214565;23;20004;-86
2022/04/27 00:09:02;;;;;;;9.82;6.85;;;6.80;99.90;;;;;;6214249;23;20087;-86
2022/04/27 00:11:30;;;;;;;14.93;8.27;;;6.70;99.90;;;;;;6216074;23;20063;-85
2022/04/27 00:14:00;;;;;;;14.25;7.45;;;6.60;99.90;;;;;;6215126;23;20047;-87
2022/04/27 00:16:27;;;;;;;11.93;7.50;;;6.50;99.90;;;;;;6214460;23;20008;-86
2022/04/27 00:18:59;;;;;;;12.50;8.07;;;6.50;99.90;;;;;;6218561;23;20004;-87
2022/04/27 00:21:27;;;;;;;10.85;7.68;;;6.50;99.90;;;;;;6216303;23;20011;-85
2022/04/27 00:24:01;;;;;;;12.55;7.95;;;6.40;99.90;;;;;;6214453;23;20004;-84
2022/04/27 00:26:29;;;;;;;11.75;7.38;;;6.40;99.90;;;;;;6215392;23;20462;-85
2022/04/27 00:28:55;;;;;;;16.23;7.78;;;6.50;99.90;;;;;;6216721;23;20601;-85
2022/04/27 00:31:27;;;;;;;15.30;8.27;;;6.50;99.90;;;;;;6216025;23;20008;-86
2022/04/27 00:33:56;;;;;;;13.57;7.93;;;6.50;99.90;;;;;;6213337;23;20008;-86
2022/04/27 00:36:22;;;;;;;12.98;8.10;;;6.50;99.90;;;;;;6215809;23;20032;-86
2022/04/27 00:38:48;;;;;;;12.18;8.93;;;6.60;99.90;;;;;;6215761;23;20000;-87
2022/04/27 00:41:14;;;;;;;9.32;7.00;;;6.60;99.90;;;;;;6213969;23;20000;-86
2022/04/27 00:43:41;;;;;;;11.57;8.40;;;6.70;99.90;;;;;;6215649;23;20059;-86
2022/04/27 00:46:10;;;;;;;13.30;8.27;;;6.60;99.90;;;;;;6214504;23;20000;-87
2022/04/27 00:48:36;;;;;;;12.65;7.60;;;6.70;99.90;;;;;;6214417;23;20008;-86
2022/04/27 00:51:03;;;;;;;12.68;7.32;;;6.70;99.90;;;;;;6213440;23;20059;-88
2022/04/27 00:53:29;;;;;;;14.80;7.50;;;6.70;99.90;;;;;;6214261;23;20005;-87
2022/04/27 00:55:57;;;;;;;14.27;8.25;;;6.60;99.90;;;;;;6210496;23;20009;-88
2022/04/27 00:58:24;;;;;;;11.82;7.22;;;6.50;99.90;;;;;;6211902;23;20067;-87
2022/04/27 01:00:50;;;;;;;11.57;7.07;;;6.40;99.90;;;;;;6213948;23;20010;-88
2022/04/27 01:03:17;;;;;;;14.95;8.05;;;6.40;99.90;;;;;;6213218;23;20088;-88
2022/04/27 01:05:43;;;;;;;11.40;7.32;;;6.40;99.90;;;;;;6213242;23;20729;-88
2022/04/27 01:08:09;;;;;;;11.00;7.22;;;6.40;99.90;;;;;;6212380;23;20032;-87
2022/04/27 01:10:35;;;;;;;11.50;7.65;;;6.40;99.90;;;;;;6212152;23;20435;-87
2022/04/27 01:13:01;;;;;;;11.38;7.40;;;6.40;99.90;;;;;;6214494;23;19996;-88
2022/04/27 01:15:34;;;;;;;11.00;7.00;;;6.40;99.90;;;;;;6214819;23;20011;-85
2022/04/27 01:18:00;;;;;;;10.13;7.03;;;6.20;99.90;;;;;;6214881;23;19997;-87
2022/04/27 01:20:46;;;;;;;10.60;7.88;;;6.20;99.90;;;;;;6214248;23;20300;-87
2022/04/27 01:23:12;;;;;;;12.98;8.35;;;6.00;99.90;;;;;;6213035;23;20059;-87
2022/04/27 01:25:56;;;;;;;10.98;7.25;;;5.90;99.90;;;;;;6215396;23;20377;-88
2022/04/27 01:28:26;;;;;;;11.13;7.32;;;6.00;99.90;;;;;;6213255;23;20008;-89
2022/04/27 01:30:57;;;;;;;10.43;7.10;;;6.10;99.90;;;;;;6214460;23;20082;-88
2022/04/27 01:33:22;;;;;;;8.75;6.30;;;6.10;99.90;;;;;;6216061;23;20228;-89
2022/04/27 01:35:48;;;;;;;11.52;7.03;;;6.10;99.90;;;;;;6214315;23;20005;-89
2022/04/27 01:38:15;;;;;;;9.20;6.82;;;6.00;99.90;;;;;;6214369;23;20485;-88
2022/04/27 01:40:40;;;;;;;10.77;6.97;;;6.00;99.90;;;;;;6214138;23;20008;-89
2022/04/27 01:43:06;;;;;;;11.90;7.47;;;5.90;99.90;;;;;;6214667;23;20012;-87
2022/04/27 01:45:32;;;;;;;13.40;7.47;;;5.90;99.90;;;;;;6213024;23;20339;-88
2022/04/27 01:47:57;;;;;;;12.27;7.90;;;5.90;99.90;;;;;;6214626;23;20004;-89
2022/04/27 01:50:23;;;;;;;13.80;8.27;;;6.00;99.90;;;;;;6212872;23;20100;-89
2022/04/27 01:55:33;;;;;;;17.17;8.20;;;5.90;99.90;;;;;;6232425;23;20063;-86
2022/04/27 01:57:59;;;;;;;23.00;8.00;;;5.80;99.90;;;;;;6222211;23;20012;-86
2022/04/27 02:00:25;;;;;;;14.80;8.55;;;5.80;99.90;;;;;;6212011;23;20202;-86
2022/04/27 02:02:50;;;;;;;13.57;8.55;;;5.90;99.90;;;;;;6213270;23;20008;-88
2022/04/27 02:05:16;;;;;;;12.57;8.38;;;5.90;99.90;;;;;;6215009;23;20032;-87
2022/04/27 02:07:43;;;;;;;19.80;8.55;;;5.90;99.90;;;;;;6214789;23;20008;-87
2022/04/27 02:10:09;;;;;;;21.30;8.93;;;5.90;99.90;;;;;;6216611;23;20007;-86
2022/04/27 02:12:35;;;;;;;16.77;10.10;;;5.80;99.90;;;;;;6219210;23;20008;-87
2022/04/27 02:15:02;;;;;;;14.75;9.13;;;5.60;99.90;;;;;;6217797;23;20001;-87
2022/04/27 02:17:27;;;;;;;13.20;8.85;;;5.70;99.90;;;;;;6214559;23;20054;-87
2022/04/27 02:19:53;;;;;;;14.70;9.32;;;5.80;99.90;;;;;;6214545;23;20008;-87
2022/04/27 02:22:18;;;;;;;14.10;8.82;;;5.90;99.90;;;;;;6213824;23;20039;-87
2022/04/27 02:24:44;;;;;;;14.52;9.13;;;5.90;99.90;;;;;;6215842;23;20009;-87
2022/04/27 02:27:10;;;;;;;13.57;8.65;;;5.90;99.90;;;;;;6214868;23;20088;-86
2022/04/27 02:29:36;;;;;;;13.32;8.95;;;6.00;99.90;;;;;;6216506;23;20001;-86
2022/04/27 02:32:02;;;;;;;13.35;9.43;;;5.90;99.90;;;;;;6215524;23;20031;-86
2022/04/27 02:34:27;;;;;;;14.13;9.13;;;5.90;99.90;;;;;;6216074;23;20008;-87
2022/04/27 02:36:53;;;;;;;13.70;9.13;;;5.80;99.90;;;;;;6215655;23;20486;-86
2022/04/27 02:39:19;;;;;;;13.60;8.85;;;5.80;99.90;;;;;;6218775;23;20010;-85
2022/04/27 02:41:44;;;;;;;13.93;8.95;;;5.80;99.90;;;;;;6214920;23;20320;-87
2022/04/27 02:44:11;;;;;;;11.88;8.07;;;5.90;99.90;;;;;;6216782;23;20004;-88
2022/04/27 02:46:37;;;;;;;15.48;8.70;;;5.90;99.90;;;;;;6217143;23;20338;-87
2022/04/27 02:51:54;;;;;;;12.18;8.80;;;6.00;99.90;;;;;;6217021;23;20382;-87
2022/04/27 02:54:22;;;;;;;12.80;8.73;;;6.10;99.90;;;;;;6215533;23;20502;-87
2022/04/27 02:56:49;;;;;;;14.90;8.50;;;6.00;99.90;;;;;;6215186;23;20008;-88
2022/04/27 02:59:15;;;;;;;12.43;8.57;;;5.90;99.90;;;;;;6215432;23;20015;-88
2022/04/27 03:01:41;;;;;;;11.23;7.53;;;5.80;99.90;;;;;;6214974;23;20000;-87
2022/04/27 03:04:08;;;;;;;14.98;9.38;;;5.90;99.90;;;;;;6216393;23;20123;-89
2022/04/27 03:06:33;;;;;;;12.25;8.48;;;5.90;99.90;;;;;;6216750;23;20459;-89
2022/04/27 03:08:59;;;;;;;15.52;9.73;;;5.80;99.90;;;;;;6216860;23;20008;-89
2022/04/27 03:11:25;;;;;;;14.27;9.27;;;5.70;99.90;;;;;;6215748;23;20005;-87
2022/04/27 03:13:51;;;;;;;14.55;8.90;;;5.60;99.90;;;;;;6214986;23;20086;-88
2022/04/27 03:16:17;;;;;;;14.00;8.30;;;5.70;99.90;;;;;;6215616;23;20082;-88
2022/04/27 03:18:43;;;;;;;16.92;9.02;;;5.70;99.90;;;;;;6214668;23;20442;-89
2022/04/27 03:21:09;;;;;;;14.82;9.10;;;5.70;99.90;;;;;;6216641;23;19997;-88
2022/04/27 03:23:35;;;;;;;12.73;8.85;;;5.70;99.90;;;;;;6217466;23;20001;-89
2022/04/27 03:26:02;;;;;;;14.80;9.15;;;5.80;99.90;;;;;;6217016;23;20021;-88
2022/04/27 03:28:28;;;;;;;13.90;8.93;;;5.70;99.90;;;;;;6215407;23;20008;-87
2022/04/27 03:30:54;;;;;;;15.63;9.57;;;5.80;99.90;;;;;;6215246;23;20534;-86
2022/04/27 03:33:19;;;;;;;14.73;8.88;;;5.80;99.90;;;;;;6216867;23;20031;-88
2022/04/27 03:35:45;;;;;;;15.98;9.38;;;5.70;99.90;;;;;;6216045;23;20423;-89
2022/04/27 03:38:11;;;;;;;13.93;9.50;;;5.70;99.90;;;;;;6216154;23;20088;-87
2022/04/27 03:40:37;;;;;;;16.75;9.38;;;5.60;99.90;;;;;;6214746;23;20024;-88
2022/04/27 03:43:03;;;;;;;14.23;9.98;;;5.50;99.90;;;;;;6217027;23;20338;-88
2022/04/27 03:45:29;;;;;;;15.93;9.85;;;5.50;99.90;;;;;;6216298;23;19996;-88
2022/04/27 03:47:55;;;;;;;20.23;11.40;;;5.40;99.90;;;;;;6216344;23;19997;-88
2022/04/27 03:50:20;;;;;;;17.42;10.15;;;5.50;99.90;;;;;;6216891;23;20028;-88
2022/04/27 03:52:47;;;;;;;16.65;10.88;;;5.50;99.90;;;;;;6215561;23;20030;-89
2022/04/27 03:55:13;;;;;;;15.20;10.35;;;5.50;99.90;;;;;;6216504;23;20441;-88
2022/04/27 03:57:38;;;;;;;16.55;10.15;;;5.50;99.90;;;;;;6216894;23;20585;-89
2022/04/27 04:00:06;;;;;;;16.23;10.25;;;5.50;99.90;;;;;;6214936;23;20007;-87
2022/04/27 04:02:32;;;;;;;15.55;9.68;;;5.40;99.90;;;;;;6216440;23;20005;-88
2022/04/27 04:04:57;;;;;;;14.77;9.73;;;5.30;99.90;;;;;;6216383;23;20005;-88
2022/04/27 04:07:23;;;;;;;17.67;10.57;;;5.30;99.90;;;;;;6215973;23;20005;-88
2022/04/27 04:09:49;;;;;;;19.80;10.07;;;5.30;99.90;;;;;;6214878;23;20005;-88
2022/04/27 04:12:14;;;;;;;19.52;10.63;;;5.40;99.90;;;;;;6213617;23;20008;-88
2022/04/27 04:14:40;;;;;;;16.45;10.65;;;5.40;99.90;;;;;;6214233;23;20004;-89
2022/04/27 04:17:06;;;;;;;15.80;10.07;;;5.40;99.90;;;;;;6214572;23;20087;-89
2022/04/27 04:19:32;;;;;;;15.30;10.18;;;5.50;99.90;;;;;;6215218;23;20091;-89
2022/04/27 04:21:59;;;;;;;22.02;10.27;;;5.50;99.90;;;;;;6216531;23;20443;-89
2022/04/27 04:24:25;;;;;;;19.50;9.57;;;5.50;99.90;;;;;;6217062;23;20050;-88
2022/04/27 04:29:35;;;;;;;14.57;8.88;;;5.30;99.90;;;;;;6216413;23;20012;-88
2022/04/27 04:32:01;;;;;;;17.08;9.18;;;5.30;99.90;;;;;;6213361;23;20378;-86
2022/04/27 04:34:27;;;;;;;18.80;9.95;;;5.20;99.90;;;;;;6213904;23;20095;-88
2022/04/27 04:36:53;;;;;;;16.55;9.70;;;5.30;99.90;;;;;;6220691;23;20119;-90
2022/04/27 04:39:19;;;;;;;14.85;8.20;;;5.30;99.90;;;;;;6216156;23;20012;-87
2022/04/27 04:41:44;;;;;;;14.38;9.13;;;5.30;99.90;;;;;;6214098;23;20027;-88
2022/04/27 04:44:10;;;;;;;12.93;8.25;;;5.30;99.90;;;;;;6218601;23;19996;-87
2022/04/27 04:46:36;;;;;;;14.02;8.70;;;5.20;99.90;;;;;;6216641;23;20008;-88
2022/04/27 04:49:01;;;;;;;13.38;8.93;;;5.20;99.90;;;;;;6217023;23;20031;-88
2022/04/27 04:51:27;;;;;;;14.15;8.85;;;5.10;99.90;;;;;;6218396;23;20339;-88
2022/04/27 04:53:53;;;;;;;14.27;9.75;;;5.10;99.90;;;;;;6216675;23;20017;-88
2022/04/27 04:56:19;;;;;;;14.20;8.57;;;5.00;99.90;;;;;;6218511;23;20009;-88
2022/04/27 04:58:47;;;;;;;14.13;10.00;;;5.10;99.90;;;;;;6220079;23;20484;-88
2022/04/27 05:01:38;;;;;;;13.88;8.95;;;5.10;99.90;;;;;;6219232;23;20008;-87
2022/04/27 05:04:31;;;;;;;14.20;8.68;;;5.10;99.90;;;;;;6219866;23;20444;-89
2022/04/27 05:07:18;;;;;;;15.93;9.85;;;5.20;99.90;;;;;;6216540;23;20032;-87
2022/04/27 05:09:46;;;;;;;16.73;10.63;;;5.30;99.90;;;;;;6219349;23;20013;-89
2022/04/27 05:12:23;;;;;;;17.15;10.07;;;5.40;99.90;;;;;;6216182;23;20015;-88
2022/04/27 05:15:18;;;;;;;23.48;11.88;;;5.40;99.90;;;;;;6219305;23;20005;-89
2022/04/27 05:17:50;;;;;;;17.80;10.77;;;5.50;99.90;;;;;;6213460;23;20066;-89
2022/04/27 05:20:16;;;;;;;18.45;11.23;;;5.70;99.90;;;;;;6217863;23;20044;-87
2022/04/27 05:22:41;;;;;;;24.70;11.05;;;5.80;99.90;;;;;;6216081;23;20382;-87
2022/04/27 05:25:09;;;;;;;17.58;11.40;;;6.00;99.90;;;;;;6216048;23;20059;-87
2022/04/27 05:27:36;;;;;;;21.33;11.63;;;6.10;99.90;;;;;;6217979;23;20028;-87
2022/04/27 05:32:46;;;;;;;19.10;11.98;;;6.30;99.90;;;;;;6215950;23;20035;-87
2022/04/27 05:35:13;;;;;;;23.95;13.50;;;6.40;99.90;;;;;;6213794;23;20363;-86
2022/04/27 05:37:39;;;;;;;24.38;14.85;;;6.40;99.90;;;;;;6212970;23;20015;-88
2022/04/27 05:40:06;;;;;;;30.98;15.00;;;6.40;99.90;;;;;;6214556;23;20001;-86
2022/04/27 05:42:32;;;;;;;30.35;14.90;;;6.40;99.90;;;;;;6215165;23;19999;-87
2022/04/27 05:44:58;;;;;;;33.80;16.50;;;6.40;99.90;;;;;;6215000;23;20018;-88
2022/04/27 05:47:25;;;;;;;30.17;16.70;;;6.50;99.90;;;;;;6215058;23;19996;-87
2022/04/27 05:49:51;;;;;;;27.50;16.10;;;6.60;99.90;;;;;;6214867;23;20435;-86
2022/04/27 05:52:18;;;;;;;32.67;16.95;;;6.70;99.90;;;;;;6212277;23;20004;-87
2022/04/27 05:54:44;;;;;;;32.08;17.67;;;6.80;99.90;;;;;;6215517;23;20005;-88
2022/04/27 05:57:10;;;;;;;33.58;18.05;;;6.80;99.90;;;;;;6215876;23;20051;-88
2022/04/27 05:59:36;;;;;;;33.53;18.23;;;6.80;99.90;;;;;;6214801;23;20008;-88
2022/04/27 06:02:02;;;;;;;29.13;17.67;;;6.90;99.90;;;;;;6215505;23;20076;-86
2022/04/27 06:04:28;;;;;;;34.65;18.27;;;6.90;99.90;;;;;;6215603;23;20487;-88
2022/04/27 06:06:53;;;;;;;34.40;19.92;;;6.90;99.90;;;;;;6214614;23;20068;-88
2022/04/27 06:09:19;;;;;;;38.92;20.05;;;6.90;99.90;;;;;;6214913;23;20431;-87
2022/04/27 06:11:45;;;;;;;32.35;18.65;;;7.10;99.90;;;;;;6213015;23;20004;-88
2022/04/27 06:14:11;;;;;;;36.15;18.77;;;7.10;99.90;;;;;;6213146;23;20059;-86
2022/04/27 06:16:36;;;;;;;36.58;20.60;;;7.20;99.90;;;;;;6213258;23;20013;-88
2022/04/27 06:19:03;;;;;;;36.13;20.40;;;7.30;99.90;;;;;;6214094;23;20007;-86
2022/04/27 06:21:31;;;;;;;37.00;20.88;;;7.40;99.90;;;;;;6214322;23;20028;-86
2022/04/27 06:23:58;;;;;;;40.17;22.02;;;7.50;99.90;;;;;;6215383;23;20001;-86
2022/04/27 06:26:25;;;;;;;35.80;20.98;;;7.60;99.90;;;;;;6212280;23;20008;-87
2022/04/27 06:28:51;;;;;;;38.58;19.85;;;7.70;99.90;;;;;;6213265;23;20007;-88
2022/04/27 06:31:17;;;;;;;39.15;21.35;;;7.70;99.90;;;;;;6214782;23;20000;-88
2022/04/27 06:33:43;;;;;;;39.58;22.35;;;7.80;99.90;;;;;;6214974;23;20004;-88
2022/04/27 06:36:09;;;;;;;43.75;23.58;;;7.80;99.90;;;;;;6214359;23;20027;-88
2022/04/27 06:38:34;;;;;;;41.20;22.83;;;7.90;99.90;;;;;;6214540;23;20327;-87
2022/04/27 06:41:02;;;;;;;42.00;22.70;;;8.00;99.90;;;;;;6214293;23;20008;-88
2022/04/27 06:43:27;;;;;;;39.15;22.33;;;8.00;99.90;;;;;;6212438;23;20001;-88
2022/04/27 06:45:53;;;;;;;40.28;22.75;;;8.10;99.90;;;;;;6214319;23;20001;-87
2022/04/27 06:48:19;;;;;;;39.03;23.38;;;8.30;99.90;;;;;;6214183;23;20009;-87
2022/04/27 06:50:44;;;;;;;43.42;23.85;;;8.40;99.90;;;;;;6212699;23;20001;-87
2022/04/27 06:53:10;;;;;;;44.63;24.45;;;8.40;99.90;;;;;;6213777;23;20394;-87
2022/04/27 06:55:36;;;;;;;42.50;22.30;;;8.60;99.90;;;;;;6211151;22;19989;-84
2022/04/27 06:58:04;;;;;;;43.50;24.27;;;8.70;99.90;;;;;;6217995;23;20009;-85
2022/04/27 07:00:33;;;;;;;43.25;25.55;;;8.80;99.90;;;;;;6220752;23;20316;-86
2022/04/27 07:03:05;;;;;;;43.65;22.70;;;9.00;99.90;;;;;;6218140;23;20004;-84
2022/04/27 07:05:39;;;;;;;42.05;23.35;;;9.00;99.90;;;;;;6218719;23;20083;-85
2022/04/27 07:08:06;;;;;;;40.70;24.50;;;9.10;99.90;;;;;;6222167;23;20011;-87
2022/04/27 07:10:37;;;;;;;39.10;23.00;;;9.20;99.90;;;;;;6221263;23;20009;-85
2022/04/27 07:13:12;;;;;;;40.67;24.08;;;9.30;99.90;;;;;;6219849;23;20346;-85
2022/04/27 07:15:41;;;;;;;42.38;25.30;;;9.20;99.90;;;;;;6219577;23;20004;-85
2022/04/27 07:18:06;;;;;;;49.53;23.80;;;9.20;99.90;;;;;;6219277;23;20008;-87
2022/04/27 07:20:35;;;;;;;38.92;22.80;;;9.30;99.90;;;;;;6219055;23;20005;-84
2022/04/27 07:23:01;;;;;;;40.10;23.52;;;9.20;99.90;;;;;;6222946;23;20431;-86
2022/04/27 07:25:26;;;;;;;41.80;23.83;;;9.20;99.90;;;;;;6223094;23;20008;-84
2022/04/27 07:27:52;;;;;;;39.42;23.30;;;9.30;99.90;;;;;;6223582;23;20005;-88
2022/04/27 07:30:18;;;;;;;36.80;22.92;;;9.50;99.90;;;;;;6223818;23;20024;-86
2022/04/27 07:32:54;;;;;;;44.10;22.17;;;9.50;99.90;;;;;;6223334;23;20011;-85
2022/04/27 07:35:20;;;;;;;37.22;21.67;;;9.60;99.90;;;;;;6221932;23;20009;-84
2022/04/27 07:37:46;;;;;;;32.55;21.55;;;9.80;99.90;;;;;;6218965;23;20786;-85
2022/04/27 07:40:13;;;;;;;38.58;20.63;;;9.80;99.90;;;;;;6219847;23;20008;-84
2022/04/27 07:42:42;;;;;;;35.90;22.23;;;9.90;99.90;;;;;;6220276;23;20004;-86
2022/04/27 07:45:11;;;;;;;34.75;19.55;;;9.90;99.90;;;;;;6218955;23;20008;-85
2022/04/27 07:47:48;;;;;;;37.35;22.23;;;10.10;99.90;;;;;;6219932;23;20027;-85
2022/04/27 07:50:22;;;;;;;35.03;19.98;;;10.20;99.90;;;;;;6222960;23;20509;-86
2022/04/27 07:53:13;;;;;;;30.98;20.20;;;10.10;99.90;;;;;;6219987;23;20035;-85
2022/04/27 07:55:39;;;;;;;30.88;18.73;;;10.30;99.90;;;;;;6211134;23;20095;-85
2022/04/27 07:58:05;;;;;;;29.55;18.10;;;10.30;99.90;;;;;;6220756;23;20008;-85
2022/04/27 08:00:31;;;;;;;30.20;17.30;;;10.40;99.90;;;;;;6218466;23;20012;-85
2022/04/27 08:02:57;;;;;;;25.55;17.30;;;10.50;99.90;;;;;;6218473;23;20123;-85
2022/04/27 08:05:23;;;;;;;27.75;17.85;;;10.60;99.90;;;;;;6217727;23;20527;-87
2022/04/27 08:07:48;;;;;;;25.40;17.17;;;10.70;99.90;;;;;;6216764;23;20000;-84
2022/04/27 08:10:20;;;;;;;22.40;15.10;;;10.90;99.90;;;;;;6215963;23;20004;-84
2022/04/27 08:12:47;;;;;;;28.35;14.98;;;11.00;99.90;;;;;;6215548;23;20485;-84
2022/04/27 08:15:17;;;;;;;20.58;13.88;;;11.10;99.90;;;;;;6217729;23;20422;-85
2022/04/27 08:18:01;;;;;;;23.83;14.52;;;11.30;99.90;;;;;;6217798;23;20016;-85
2022/04/27 08:23:22;;;;;;;21.50;13.27;;;11.50;99.90;;;;;;6217579;23;20007;-86
2022/04/27 08:25:49;;;;;;;20.23;13.70;;;11.40;99.90;;;;;;6216612;23;20015;-87
2022/04/27 08:28:16;;;;;;;20.70;13.63;;;11.50;99.90;;;;;;6217212;23;20008;-85
2022/04/27 08:30:47;;;;;;;18.35;12.68;;;11.50;99.90;;;;;;6216645;23;20443;-85
2022/04/27 08:33:13;;;;;;;;;;;11.50;99.90;;;;;;6218106;23;20444;-85
2022/04/27 08:35:39;;;;;;;19.65;13.23;;;11.40;99.90;;;;;;6217389;23;20322;-85
2022/04/27 08:38:06;;;;;;;18.65;12.30;;;11.40;99.90;;;;;;6214558;23;20001;-85
2022/04/27 08:40:35;;;;;;;19.88;12.45;;;11.50;99.90;;;;;;6216183;23;20439;-85
2022/04/27 08:43:01;;;;;;;15.57;11.20;;;11.50;99.90;;;;;;6217077;23;20420;-85
2022/04/27 08:45:28;;;;;;;17.08;11.30;;;11.80;99.90;;;;;;6216649;23;19996;-85
2022/04/27 08:47:54;;;;;;;14.70;9.43;;;12.20;99.90;;;;;;6216185;23;20351;-85
2022/04/27 08:50:22;;;;;;;17.60;10.40;;;12.40;99.90;;;;;;6214160;23;20398;-85
2022/04/27 08:52:49;;;;;;;18.95;10.25;;;12.40;99.90;;;;;;6217691;23;20008;-86
2022/04/27 08:55:16;;;;;;;14.73;10.13;;;12.60;99.90;;;;;;6221236;23;20316;-87
2022/04/27 08:57:45;;;;;;;17.27;10.40;;;12.60;99.90;;;;;;6219062;23;20104;-85
2022/04/27 09:00:16;;;;;;;15.60;9.60;;;12.70;99.90;;;;;;6219669;23;20005;-84
2022/04/27 09:02:42;;;;;;;14.55;9.43;;;12.80;99.90;;;;;;6220857;23;20478;-85
2022/04/27 09:05:14;;;;;;;12.65;8.23;;;12.90;99.90;;;;;;6220839;23;20007;-85
2022/04/27 09:07:40;;;;;;;14.20;8.68;;;13.10;99.90;;;;;;6221986;23;20003;-85
2022/04/27 09:10:12;;;;;;;12.00;8.10;;;13.30;99.90;;;;;;6218927;23;20430;-85
2022/04/27 09:12:57;;;;;;;12.60;8.65;;;13.50;99.90;;;;;;6219661;23;20330;-85
2022/04/27 09:15:25;;;;;;;12.80;7.38;;;13.50;99.90;;;;;;6220813;23;20004;-88
2022/04/27 09:20:47;;;;;;;9.90;6.93;;;13.60;99.90;;;;;;6220549;23;20388;-85
2022/04/27 09:23:40;;;;;;;9.40;7.35;;;13.70;99.90;;;;;;6220896;23;20004;-88
2022/04/27 09:26:19;;;;;;;9.63;6.50;;;13.60;99.80;;;;;;6221919;23;19997;-84
2022/04/27 09:28:55;;;;;;;12.25;7.20;;;13.70;99.70;;;;;;6219033;23;20011;-89
2022/04/27 09:31:34;;;;;;;9.60;7.05;;;13.90;98.90;;;;;;6219991;23;20028;-85
2022/04/27 09:34:27;;;;;;;8.50;6.70;;;14.10;96.60;;;;;;6220384;23;20352;-85
2022/04/27 09:36:53;;;;;;;9.63;6.93;;;14.00;96.20;;;;;;6221624;23;20007;-85
2022/04/27 09:39:24;;;;;;;8.57;6.47;;;14.10;96.90;;;;;;6221563;23;20007;-87
2022/04/27 09:41:50;;;;;;;8.50;6.20;;;14.10;96.50;;;;;;6222383;23;20005;-89
2022/04/27 09:44:34;;;;;;;7.95;5.88;;;14.30;96.20;;;;;;6220492;23;20008;-86
2022/04/27 09:47:03;;;;;;;9.20;5.25;;;14.60;95.10;;;;;;6221199;23;20068;-85
2022/04/27 09:49:35;;;;;;;7.30;5.47;;;14.80;95.00;;;;;;6222357;23;20080;-87
2022/04/27 09:52:02;;;;;;;7.53;5.78;;;14.80;92.60;;;;;;6220244;23;20004;-86
2022/04/27 09:54:30;;;;;;;8.48;5.03;;;14.80;89.50;;;;;;6221113;23;20024;-86
2022/04/27 09:57:00;;;;;;;6.80;5.45;;;14.80;90.90;;;;;;6222138;23;20051;-86
2022/04/27 09:59:29;;;;;;;7.07;4.93;;;14.80;90.60;;;;;;6230905;23;20004;-89
2022/04/27 10:02:00;;;;;;;6.85;4.93;;;15.00;90.20;;;;;;6231897;23;19997;-87
2022/04/27 10:04:28;;;;;;;6.32;5.10;;;15.30;85.20;;;;;;6229310;23;20092;-86
2022/04/27 10:07:00;;;;;;;6.20;4.82;;;15.30;84.20;;;;;;6231051;23;20016;-86
2022/04/27 10:09:29;;;;;;;6.25;4.22;;;15.50;83.30;;;;;;6228339;23;19996;-85
2022/04/27 10:11:57;;;;;;;5.32;4.55;;;15.60;82.40;;;;;;6217867;23;20005;-85
2022/04/27 10:14:22;;;;;;;6.90;4.80;;;15.40;83.70;;;;;;6217640;23;20004;-86
2022/04/27 10:16:49;;;;;;;6.90;4.90;;;15.10;82.30;;;;;;6220254;23;20093;-85
2022/04/27 10:19:16;;;;;;;4.75;3.95;;;15.10;84.10;;;;;;6220005;23;20004;-87
2022/04/27 10:21:56;;;;;;;10.45;5.00;;;15.30;85.20;;;;;;6217925;23;20004;-85
2022/04/27 10:24:34;;;;;;;7.10;4.30;;;15.50;82.40;;;;;;6220339;23;20068;-85
2022/04/27 10:27:15;;;;;;;8.73;4.57;;;15.90;83.90;;;;;;6219964;23;20001;-86
2022/04/27 10:29:40;;;;;;;8.32;5.18;;;16.50;77.50;;;;;;6220656;23;20405;-86
2022/04/27 10:32:06;;;;;;;7.47;5.80;;;16.90;73.20;;;;;;6221508;23;20001;-85
2022/04/27 10:34:33;;;;;;;7.07;5.75;;;17.30;70.20;;;;;;6219310;23;20058;-85
2022/04/27 10:37:05;;;;;;;8.43;5.05;;;17.50;67.70;;;;;;6218939;23;20509;-85
2022/04/27 10:39:32;;;;;;;6.07;5.45;;;17.70;70.10;;;;;;6219693;23;20066;-85
2022/04/27 10:42:04;;;;;;;8.18;5.63;;;17.20;67.90;;;;;;6220028;23;20055;-85
2022/04/27 10:44:49;;;;;;;8.77;6.07;;;16.90;66.20;;;;;;6222265;23;20007;-85
2022/04/27 10:47:16;;;;;;;9.27;5.50;;;17.00;66.20;;;;;;6218923;23;20005;-85
2022/04/27 10:49:42;;;;;;;7.18;5.68;;;17.50;65.50;;;;;;6221696;23;20338;-85
2022/04/27 10:52:09;;;;;;;7.88;5.85;;;17.80;64.40;;;;;;6221088;23;20091;-87
2022/04/27 10:54:37;;;;;;;9.30;5.90;;;17.80;62.40;;;;;;6219398;23;20009;-86
2022/04/27 10:57:14;;;;;;;9.98;5.85;;;18.10;62.50;;;;;;6221841;23;20402;-85
2022/04/27 11:00:13;;;;;;;8.32;5.40;;;18.50;61.60;;;;;;6221758;23;20001;-86
2022/04/27 11:02:41;;;;;;;7.85;5.78;;;18.90;59.80;;;;;;6187362;23;20004;-86
2022/04/27 11:05:12;;;;;;;5.97;5.25;;;18.80;60.00;;;;;;6221486;23;20001;-85
2022/04/27 11:07:58;;;;;;;7.80;5.97;;;18.90;60.80;;;;;;6221334;23;20000;-86
2022/04/27 11:10:25;;;;;;;7.82;5.80;;;18.60;62.40;;;;;;6220909;23;20007;-85
2022/04/27 11:12:56;;;;;;;8.15;6.35;;;18.40;61.60;;;;;;6218549;23;20385;-86
2022/04/27 11:15:22;;;;;;;;;;;18.10;60.40;;;;;;6222132;23;20063;-85
2022/04/27 11:18:01;;;;;;;10.52;6.47;;;18.00;59.70;;;;;;6219769;23;19904;-87
2022/04/27 11:20:38;;;;;;;11.48;6.20;;;17.90;58.50;;;;;;6221704;23;20005;-85
2022/04/27 11:23:07;;;;;;;7.93;6.00;;;17.80;61.00;;;;;;6220190;23;20497;-85
2022/04/27 11:25:50;;;;;;;8.23;6.15;;;17.60;60.50;;;;;;6220022;23;20508;-85
2022/04/27 11:28:17;;;;;;;7.55;6.05;;;17.70;59.90;;;;;;6221813;23;20004;-85
2022/04/27 11:30:43;;;;;;;8.20;6.55;;;17.60;61.80;;;;;;6222552;23;20001;-87
2022/04/27 11:33:10;;;;;;;8.95;6.35;;;17.80;62.00;;;;;;6220054;23;20027;-85
2022/04/27 11:35:44;;;;;;;8.50;6.10;;;18.10;60.30;;;;;;6221548;23;20008;-85
2022/04/27 11:38:15;;;;;;;7.40;5.78;;;18.30;58.90;;;;;;6223763;23;20015;-85
2022/04/27 11:40:41;;;;;;;7.90;6.18;;;18.70;58.30;;;;;;6221711;23;20011;-85
2022/04/27 11:43:07;;;;;;;10.50;6.43;;;18.90;56.30;;;;;;6221559;23;20000;-86
2022/04/27 11:45:33;;;;;;;7.20;6.00;;;19.00;56.10;;;;;;6220889;23;20008;-88
2022/04/27 11:48:04;;;;;;;7.38;6.13;;;19.20;56.80;;;;;;6219090;23;20004;-86
2022/04/27 11:50:31;;;;;;;;;;;19.20;56.90;;;;;;6218514;23;20085;-86
2022/04/27 11:53:04;;;;;;;9.73;6.20;;;19.20;57.70;;;;;;6218867;23;19900;-88
2022/04/27 11:55:32;;;;;;;9.60;7.28;;;19.10;57.20;;;;;;6218700;23;20011;-86
2022/04/27 11:57:58;;;;;;;8.27;5.95;;;19.20;55.60;;;;;;6218756;23;20012;-86
2022/04/27 12:00:27;;;;;;;6.03;5.13;;;19.00;58.10;;;;;;6222142;23;20008;-85
2022/04/27 12:02:53;;;;;;;9.73;6.45;;;19.10;55.70;;;;;;6223994;23;20012;-85
2022/04/27 12:05:33;;;;;;;7.55;5.97;;;19.10;55.00;;;;;;6222357;23;20004;-88
2022/04/27 12:08:01;;;;;;;8.07;5.28;;;19.30;54.00;;;;;;6222112;23;20016;-86
2022/04/27 12:10:29;;;;;;;6.22;5.35;;;19.30;53.60;;;;;;6223591;23;20000;-88
2022/04/27 12:12:59;;;;;;;8.68;6.22;;;19.40;54.00;;;;;;6218959;23;20453;-86
2022/04/27 12:15:26;;;;;;;6.67;5.63;;;19.30;54.40;;;;;;6219357;23;20000;-85
2022/04/27 12:17:55;;;;;;;7.55;5.28;;;19.30;53.20;;;;;;6220166;23;20000;-86
2022/04/27 12:20:48;;;;;;;9.05;5.35;;;18.80;55.10;;;;;;6216660;23;20399;-86
2022/04/27 12:23:14;;;;;;;6.82;5.43;;;18.70;55.20;;;;;;6213100;23;20001;-88
2022/04/27 12:25:52;;;;;;;7.63;5.88;;;18.70;55.00;;;;;;6217812;23;19996;-85
2022/04/27 12:28:20;;;;;;;6.63;4.82;;;18.90;53.70;;;;;;6217934;23;20000;-87
2022/04/27 12:30:51;;;;;;;6.13;5.00;;;19.00;54.60;;;;;;6215722;23;20005;-85
2022/04/27 12:33:18;;;;;;;;;;;18.90;54.90;;;;;;6218881;23;20007;-86
2022/04/27 12:38:34;;;;;;;4.97;4.30;;;18.70;54.80;;;;;;6217335;23;20090;-86
2022/04/27 12:40:59;;;;;;;7.20;5.18;;;18.60;53.40;;;;;;6217130;23;20455;-86
2022/04/27 12:43:25;;;;;;;7.07;4.63;;;18.60;55.80;;;;;;6215035;23;20000;-90
2022/04/27 12:46:11;;;;;;;9.52;5.53;;;18.60;56.60;;;;;;6218478;23;19997;-85
2022/04/27 12:48:38;;;;;;;8.50;4.45;;;18.50;54.90;;;;;;6219631;23;20017;-85
2022/04/27 12:51:06;;;;;;;7.55;5.50;;;18.70;54.10;;;;;;6216758;23;20008;-86
2022/04/27 12:53:33;;;;;;;5.20;4.40;;;19.00;55.00;;;;;;6216268;23;20466;-86
2022/04/27 12:56:04;;;;;;;6.57;5.28;;;19.20;55.10;;;;;;6215293;23;20028;-86
2022/04/27 12:58:30;;;;;;;6.07;4.93;;;19.40;54.00;;;;;;6210511;23;20177;-89
2022/04/27 13:00:56;;;;;;;5.82;4.63;;;19.60;53.80;;;;;;6213263;23;20015;-90
2022/04/27 13:03:23;;;;;;;5.50;4.55;;;19.80;51.60;;;;;;6214014;23;20005;-88
2022/04/27 13:05:50;;;;;;;8.75;4.78;;;20.20;53.10;;;;;;6214041;23;20459;-87
2022/04/27 13:08:16;;;;;;;6.38;4.88;;;20.40;51.10;;;;;;6214429;23;20476;-87
2022/04/27 13:13:27;;;;;;;5.32;4.82;;;20.50;50.80;;;;;;6215846;23;20015;-88